Time;durP1;ratioP1;P1;durP2;ratioP2;P2;SDS_P1;SDS_P2;PMS_P1;PMS_P2;Temp;Humidity;BMP_temperature;BMP_pressure;BME280_temperature;BME280_humidity;BME280_pressure;Samples;Min_cycle;Max_cycle;Signal;HPM_P1;HPM_P2
2021/06/05 00:01:51;;;;;;;15.85;6.35;;;;;;;15.96;61.88;101523.03;4434129;32;20073;-77
2021/06/05 00:04:18;;;;;;;12.37;6.05;;;;;;;15.93;62.05;101526.78;4438552;32;20430;-75
2021/06/05 00:06:44;;;;;;;14.48;6.70;;;;;;;15.79;62.43;101525.19;4439262;32;20095;-75
2021/06/05 00:09:12;;;;;;;12.73;6.10;;;;;;;15.81;62.38;101533.25;4427839;32;20049;-75
2021/06/05 00:11:38;;;;;;;14.00;6.37;;;;;;;15.82;62.39;101534.84;4425485;32;20077;-75
2021/06/05 00:14:07;;;;;;;14.50;6.57;;;;;;;15.76;62.40;101534.63;4421629;32;20401;-77
2021/06/05 00:16:38;;;;;;;9.98;5.75;;;;;;;15.77;62.41;101535.41;4428846;32;20106;-77
2021/06/05 00:19:05;;;;;;;11.48;5.20;;;;;;;15.72;62.56;101542.47;4425515;32;20072;-75
2021/06/05 00:21:32;;;;;;;15.95;6.15;;;;;;;15.71;62.53;101542.94;4427946;32;20434;-75
2021/06/05 00:23:57;;;;;;;18.75;6.50;;;;;;;15.75;62.35;101537.91;4430161;32;20567;-75
2021/06/05 00:26:25;;;;;;;12.25;5.40;;;;;;;15.81;61.95;101534.03;4421939;32;20451;-75
2021/06/05 00:28:50;;;;;;;10.88;5.82;;;;;;;15.84;61.79;101532.34;4412463;32;20105;-77
2021/06/05 00:31:17;;;;;;;14.77;6.43;;;;;;;15.92;61.82;101530.84;4416616;32;20097;-77
2021/06/05 00:33:42;;;;;;;11.82;5.90;;;;;;;15.95;62.02;101535.63;4427477;32;20438;-77
2021/06/05 00:36:09;;;;;;;13.77;6.72;;;;;;;15.87;62.52;101532.22;4427474;32;20690;-77
2021/06/05 00:38:36;;;;;;;11.38;6.82;;;;;;;15.93;62.09;101529.63;4427888;32;20083;-77
2021/06/05 00:41:05;;;;;;;14.43;6.30;;;;;;;15.98;62.20;101531.09;4422391;32;20057;-77
2021/06/05 00:43:38;;;;;;;20.50;7.60;;;;;;;15.94;62.25;101520.66;4429016;32;20433;-77
2021/06/05 00:46:04;;;;;;;13.95;6.47;;;;;;;15.91;62.37;101521.56;4420726;32;20068;-75
2021/06/05 00:48:29;;;;;;;17.75;6.97;;;;;;;15.92;62.41;101516.66;4426609;32;20045;-76
2021/06/05 00:50:56;;;;;;;13.88;6.80;;;;;;;15.91;62.52;101517.91;4428910;32;20587;-75
2021/06/05 00:53:27;;;;;;;13.32;6.57;;;;;;;15.88;62.66;101516.78;4420899;32;20062;-76
2021/06/05 00:55:56;;;;;;;15.18;7.60;;;;;;;15.81;62.62;101511.34;4428292;32;20045;-75
2021/06/05 00:58:23;;;;;;;13.90;6.60;;;;;;;15.68;63.22;101501.28;4429002;32;20059;-75
2021/06/05 01:00:53;;;;;;;14.55;6.55;;;;;;;15.70;63.31;101504.44;4428024;32;20053;-75
2021/06/05 01:03:20;;;;;;;14.00;6.30;;;;;;;15.73;63.09;101504.31;4419239;32;20097;-75
2021/06/05 01:05:48;;;;;;;10.38;6.12;;;;;;;15.64;63.26;101498.53;4418526;32;20055;-75
2021/06/05 01:10:56;;;;;;;15.20;7.50;;;;;;;15.84;62.98;101498.28;4422829;31;1471835;-75
2021/06/05 01:13:29;;;;;;;15.70;7.03;;;;;;;15.84;62.98;101498.28;4442756;32;20120;-75
2021/06/05 01:15:58;;;;;;;16.70;7.18;;;;;;;15.36;64.06;101495.78;4445008;32;20049;-76
2021/06/05 01:21:41;;;;;;;16.23;7.43;;;;;;;15.63;63.80;101504.66;4427486;31;670165;-75
2021/06/05 01:24:29;;;;;;;15.65;7.55;;;;;;;15.63;63.80;101504.66;4447375;32;20107;-74
2021/06/05 01:27:03;;;;;;;19.75;8.27;;;;;;;15.10;65.01;101497.03;4444900;32;20118;-75
2021/06/05 01:29:37;;;;;;;16.02;7.18;;;;;;;15.04;65.17;101493.16;4449710;32;20048;-75
2021/06/05 01:32:07;;;;;;;14.87;8.15;;;;;;;14.96;65.53;101497.44;4452126;32;20089;-75
2021/06/05 01:34:39;;;;;;;14.90;7.10;;;;;;;14.86;65.83;101499.34;4454860;32;20418;-74
2021/06/05 01:37:08;;;;;;;14.57;6.78;;;;;;;14.83;66.07;101494.59;4454182;32;21345;-75
2021/06/05 01:39:37;;;;;;;13.35;6.70;;;;;;;14.85;66.12;101492.09;4439740;32;20068;-75
2021/06/05 01:42:08;;;;;;;14.30;6.57;;;;;;;14.84;66.16;101487.66;4445938;32;20108;-75
2021/06/05 01:44:36;;;;;;;12.37;6.60;;;;;;;14.84;66.05;101496.16;4455829;32;20064;-75
2021/06/05 01:47:03;;;;;;;14.82;6.85;;;;;;;14.75;66.38;101492.38;4451627;32;20057;-75
2021/06/05 01:49:29;;;;;;;15.45;6.75;;;;;;;14.68;66.74;101492.59;4455355;32;20040;-75
2021/06/05 01:52:05;;;;;;;10.50;6.68;;;;;;;14.59;67.10;101493.25;4455864;32;20072;-75
2021/06/05 01:54:46;;;;;;;14.43;7.22;;;;;;;14.61;66.92;101489.97;4454173;32;20069;-75
2021/06/05 01:57:17;;;;;;;12.90;6.82;;;;;;;14.52;67.44;101492.66;4442580;32;20071;-75
2021/06/05 01:59:44;;;;;;;13.85;7.50;;;;;;;14.55;67.13;101495.41;4454274;32;20097;-75
2021/06/05 02:02:10;;;;;;;16.83;7.22;;;;;;;14.50;67.41;101484.63;4434004;32;20062;-75
2021/06/05 02:04:36;;;;;;;14.07;7.50;;;;;;;14.50;67.39;101481.78;4424437;32;20045;-75
2021/06/05 02:07:06;;;;;;;19.25;7.55;;;;;;;14.53;67.05;101492.22;4427423;32;20057;-75
2021/06/05 02:09:32;;;;;;;10.85;5.78;;;;;;;14.39;67.48;101489.00;4437461;32;20101;-74
2021/06/05 02:12:05;;;;;;;11.25;5.80;;;;;;;14.40;67.19;101484.91;4425734;32;20042;-75
2021/06/05 02:14:37;;;;;;;9.27;5.18;;;;;;;14.23;67.66;101481.31;4424562;32;20072;-74
2021/06/05 02:17:07;;;;;;;17.15;5.32;;;;;;;14.18;67.67;101470.53;4424851;32;20053;-75
2021/06/05 02:19:37;;;;;;;10.43;5.30;;;;;;;14.14;67.68;101471.88;4432948;32;20084;-75
2021/06/05 02:22:07;;;;;;;9.35;5.25;;;;;;;14.09;67.80;101476.81;4439090;32;20057;-75
2021/06/05 02:24:40;;;;;;;11.73;6.07;;;;;;;14.05;68.10;101472.47;4439666;32;20065;-75
2021/06/05 02:27:07;;;;;;;9.77;5.12;;;;;;;14.04;68.09;101474.53;4435704;32;20041;-75
2021/06/05 02:29:39;;;;;;;12.32;5.47;;;;;;;14.00;68.27;101475.88;4436907;32;20065;-74
2021/06/05 02:32:07;;;;;;;14.05;5.32;;;;;;;13.99;68.41;101482.75;4430853;32;20522;-75
2021/06/05 02:34:33;;;;;;;12.37;5.35;;;;;;;13.89;68.68;101467.66;4417233;32;20073;-75
2021/06/05 02:37:02;;;;;;;12.70;4.80;;;;;;;13.90;68.45;101463.56;4413553;32;20081;-76
2021/06/05 02:39:28;;;;;;;10.50;5.00;;;;;;;13.96;68.06;101477.97;4415921;32;20069;-75
2021/06/05 02:41:55;;;;;;;11.25;5.30;;;;;;;13.95;68.29;101462.25;4422033;32;20258;-75
2021/06/05 02:44:25;;;;;;;10.90;5.70;;;;;;;13.93;68.10;101471.16;4420045;32;20072;-76
2021/06/05 02:46:51;;;;;;;10.18;5.15;;;;;;;13.92;68.21;101472.41;4417189;32;20092;-75
2021/06/05 02:52:00;;;;;;;12.10;4.60;;;;;;;14.35;67.56;101483.41;4445941;31;708773;-75
2021/06/05 02:54:27;;;;;;;13.98;5.28;;;;;;;14.35;67.56;101483.41;4446434;32;20586;-75
2021/06/05 02:56:55;;;;;;;16.12;5.30;;;;;;;13.91;68.17;101487.81;4454293;32;20079;-74
2021/06/05 02:59:22;;;;;;;8.82;5.00;;;;;;;13.89;68.42;101475.34;4454134;32;20075;-75
2021/06/05 03:01:49;;;;;;;7.60;5.05;;;;;;;13.87;68.48;101475.00;4455327;32;20122;-75
2021/06/05 03:04:15;;;;;;;10.90;4.80;;;;;;;13.87;68.49;101484.25;4456480;32;20065;-75
2021/06/05 03:06:41;;;;;;;12.07;5.87;;;;;;;13.93;68.44;101474.00;4452182;32;20104;-74
2021/06/05 03:09:08;;;;;;;12.45;6.00;;;;;;;13.80;68.68;101478.78;4453104;32;20037;-74
2021/06/05 03:11:34;;;;;;;9.15;5.87;;;;;;;13.85;68.69;101483.94;4444138;32;20049;-75
2021/06/05 03:14:02;;;;;;;14.98;6.28;;;;;;;13.82;68.78;101482.00;4456983;32;20075;-74
2021/06/05 03:16:28;;;;;;;15.57;6.32;;;;;;;13.77;68.72;101479.69;4448985;32;20065;-74
2021/06/05 03:18:55;;;;;;;17.98;6.90;;;;;;;13.75;68.75;101484.97;4454184;32;20099;-75
2021/06/05 03:21:21;;;;;;;13.23;6.68;;;;;;;13.65;69.28;101490.91;4448444;32;20056;-75
2021/06/05 03:23:49;;;;;;;12.88;6.43;;;;;;;13.62;69.42;101484.09;4439265;32;20120;-75
2021/06/05 03:26:17;;;;;;;13.57;6.97;;;;;;;13.69;69.07;101485.97;4440758;32;20071;-75
2021/06/05 03:28:43;;;;;;;11.70;6.53;;;;;;;13.59;69.56;101482.16;4448089;32;20110;-75
2021/06/05 03:31:10;;;;;;;12.70;6.15;;;;;;;13.56;69.60;101491.53;4453694;32;20052;-74
2021/06/05 03:33:36;;;;;;;16.85;5.40;;;;;;;13.47;69.96;101485.69;4439725;32;20144;-74
2021/06/05 03:36:03;;;;;;;13.68;6.07;;;;;;;13.52;69.61;101487.19;4440914;32;20087;-74
2021/06/05 03:38:29;;;;;;;11.98;5.40;;;;;;;13.47;69.44;101482.06;4452198;32;20056;-75
2021/06/05 03:40:55;;;;;;;12.73;5.25;;;;;;;13.46;69.31;101484.09;4445480;32;20102;-75
2021/06/05 03:43:22;;;;;;;11.65;5.07;;;;;;;13.42;69.13;101489.03;4439910;32;20053;-75
2021/06/05 03:45:49;;;;;;;11.05;4.68;;;;;;;13.45;69.14;101484.53;4441026;32;20077;-75
2021/06/05 03:48:15;;;;;;;8.73;4.85;;;;;;;13.48;68.80;101481.63;4447167;32;20442;-75
2021/06/05 03:50:45;;;;;;;9.95;5.12;;;;;;;13.48;68.79;101475.97;4449016;32;20080;-75
2021/06/05 03:53:11;;;;;;;9.80;5.45;;;;;;;13.51;68.65;101482.78;4452297;32;20037;-75
2021/06/05 03:55:38;;;;;;;16.55;6.65;;;;;;;13.47;69.09;101490.56;4452177;32;20088;-74
2021/06/05 03:58:04;;;;;;;9.63;5.75;;;;;;;13.51;68.87;101483.59;4443504;32;20156;-74
2021/06/05 04:00:33;;;;;;;14.80;6.45;;;;;;;13.49;69.15;101486.03;4448529;32;20036;-75
2021/06/05 04:02:59;;;;;;;13.25;6.40;;;;;;;13.44;69.65;101480.91;4437437;32;20049;-75
2021/06/05 04:05:26;;;;;;;13.13;6.20;;;;;;;13.48;69.55;101483.66;4430020;32;20068;-74
2021/06/05 04:07:52;;;;;;;16.58;6.25;;;;;;;13.51;69.01;101486.41;4437738;32;20144;-76
2021/06/05 04:10:18;;;;;;;13.02;5.07;;;;;;;13.40;69.02;101490.69;4440778;32;20150;-75
2021/06/05 04:12:44;;;;;;;10.77;5.00;;;;;;;13.42;68.65;101482.59;4429700;32;20113;-75
2021/06/05 04:15:14;;;;;;;9.52;5.05;;;;;;;13.38;68.64;101490.38;4427032;32;20111;-74
2021/06/05 04:17:40;;;;;;;9.52;4.87;;;;;;;13.33;68.70;101497.34;4430075;32;20109;-75
2021/06/05 04:20:10;;;;;;;8.98;4.75;;;;;;;13.39;68.43;101497.59;4429317;32;20081;-75
2021/06/05 04:22:36;;;;;;;10.05;4.50;;;;;;;13.30;69.12;101489.72;4440225;32;20101;-75
2021/06/05 04:25:02;;;;;;;8.15;4.60;;;;;;;13.35;68.73;101492.03;4442974;32;20124;-76
2021/06/05 04:27:28;;;;;;;12.13;5.15;;;;;;;13.37;68.67;101494.41;4444446;32;20534;-74
2021/06/05 04:29:54;;;;;;;13.40;4.57;;;;;;;13.35;68.84;101496.91;4439618;32;20057;-77
2021/06/05 04:32:20;;;;;;;9.88;5.25;;;;;;;13.38;68.68;101491.13;4438287;32;20136;-75
2021/06/05 04:34:46;;;;;;;9.35;4.68;;;;;;;13.46;68.38;101491.78;4444965;32;20057;-74
2021/06/05 04:37:12;;;;;;;18.48;4.90;;;;;;;13.57;68.02;101495.16;4442556;32;20037;-75
2021/06/05 04:39:40;;;;;;;12.52;4.72;;;;;;;13.58;67.83;101486.22;4428814;32;20154;-75
2021/06/05 04:42:07;;;;;;;8.32;5.05;;;;;;;13.61;67.78;101482.53;4431707;32;20045;-74
2021/06/05 04:44:34;;;;;;;14.82;4.80;;;;;;;13.70;67.44;101487.56;4429618;32;20042;-77
2021/06/05 04:47:00;;;;;;;8.95;4.35;;;;;;;13.78;67.05;101491.81;4434001;32;20118;-75
2021/06/05 04:49:26;;;;;;;11.85;5.40;;;;;;;13.81;66.89;101486.03;4442200;32;20045;-74
2021/06/05 04:51:51;;;;;;;9.02;5.40;;;;;;;13.90;66.56;101491.09;4442705;32;20086;-75
2021/06/05 04:54:17;;;;;;;11.40;4.97;;;;;;;13.91;66.36;101490.66;4442913;32;20954;-74
2021/06/05 04:56:46;;;;;;;13.90;4.80;;;;;;;13.99;66.51;101491.22;4439693;32;20399;-74
2021/06/05 04:59:14;;;;;;;15.90;4.53;;;;;;;14.04;66.44;101488.69;4432163;32;20064;-74
2021/06/05 05:01:40;;;;;;;10.57;4.97;;;;;;;14.08;66.12;101491.41;4428841;32;20507;-76
2021/06/05 05:04:07;;;;;;;11.60;4.87;;;;;;;14.03;66.06;101484.25;4429289;32;20515;-77
2021/06/05 05:06:33;;;;;;;8.73;5.18;;;;;;;14.10;65.42;101486.09;4435205;32;20057;-77
2021/06/05 05:08:59;;;;;;;13.15;4.72;;;;;;;14.19;65.55;101476.97;4437036;32;20046;-76
2021/06/05 05:11:25;;;;;;;8.35;4.80;;;;;;;14.24;65.20;101490.63;4439957;32;20409;-76
2021/06/05 05:13:52;;;;;;;13.45;5.22;;;;;;;14.32;65.00;101489.97;4441826;32;20045;-77
2021/06/05 05:16:18;;;;;;;11.65;5.07;;;;;;;14.39;64.80;101486.94;4428775;32;20129;-76
2021/06/05 05:18:46;;;;;;;14.60;5.70;;;;;;;14.47;64.48;101485.50;4429414;32;20041;-76
2021/06/05 05:21:15;;;;;;;8.52;4.53;;;;;;;14.47;64.58;101494.00;4427431;32;20061;-77
2021/06/05 05:23:41;;;;;;;11.90;7.37;;;;;;;14.62;64.07;101495.19;4438786;32;20042;-77
2021/06/05 05:26:08;;;;;;;12.57;4.97;;;;;;;14.78;63.72;101489.47;4438664;32;20072;-76
2021/06/05 05:28:36;;;;;;;11.55;5.00;;;;;;;14.89;63.50;101491.97;4427154;32;20160;-77
2021/06/05 05:31:06;;;;;;;9.63;5.07;;;;;;;14.98;63.28;101501.44;4428108;32;20377;-76
2021/06/05 05:33:37;;;;;;;11.88;5.03;;;;;;;15.10;62.78;101494.97;4431730;32;20041;-76
2021/06/05 05:36:06;;;;;;;12.80;5.65;;;;;;;15.20;62.40;101502.38;4442184;32;20045;-76
2021/06/05 05:38:32;;;;;;;13.10;5.97;;;;;;;15.30;62.53;101503.25;4432208;32;20076;-76
2021/06/05 05:40:58;;;;;;;13.05;6.32;;;;;;;15.38;62.40;101499.00;4443076;32;20084;-76
2021/06/05 05:43:23;;;;;;;11.95;5.68;;;;;;;15.52;62.10;101509.88;4442668;32;20097;-77
2021/06/05 05:45:49;;;;;;;11.18;5.90;;;;;;;15.63;62.08;101508.31;4426235;32;20064;-76
2021/06/05 05:48:16;;;;;;;13.55;6.37;;;;;;;15.79;61.60;101507.38;4429520;32;20454;-76
2021/06/05 05:50:44;;;;;;;13.57;6.85;;;;;;;15.90;60.94;101508.59;4441095;32;20061;-75
2021/06/05 05:53:11;;;;;;;13.52;6.07;;;;;;;16.06;60.68;101504.84;4429096;32;20054;-77
2021/06/05 05:55:37;;;;;;;10.57;6.20;;;;;;;16.11;60.24;101511.97;4439591;32;20393;-76
2021/06/05 05:58:13;;;;;;;12.50;6.55;;;;;;;16.30;59.79;101510.91;4428254;32;20505;-76
2021/06/05 06:00:42;;;;;;;14.95;6.68;;;;;;;16.43;59.08;101509.62;4442049;32;20068;-77
2021/06/05 06:03:09;;;;;;;19.30;6.28;;;;;;;16.59;58.74;101509.44;4434352;32;20271;-75
2021/06/05 06:05:35;;;;;;;11.40;6.55;;;;;;;16.64;58.35;101511.72;4440510;32;20049;-77
2021/06/05 06:08:03;;;;;;;9.15;5.93;;;;;;;16.74;57.95;101504.81;4442822;32;20101;-76
2021/06/05 06:10:29;;;;;;;14.87;6.30;;;;;;;16.91;57.45;101514.72;4426866;32;20113;-76
2021/06/05 06:12:55;;;;;;;17.77;6.30;;;;;;;17.00;56.93;101511.94;4437846;32;20549;-75
2021/06/05 06:15:24;;;;;;;13.02;6.37;;;;;;;17.13;56.66;101511.87;4438367;32;20070;-76
2021/06/05 06:17:50;;;;;;;9.38;6.00;;;;;;;17.14;56.45;101519.13;4438155;32;20119;-76
2021/06/05 06:22:56;;;;;;;14.50;6.20;;;;;;;17.39;56.05;101518.97;4429936;31;756956;-75
2021/06/05 06:25:26;;;;;;;13.25;6.25;;;;;;;17.47;55.51;101529.66;4457029;32;20661;-75
2021/06/05 06:27:53;;;;;;;15.15;6.68;;;;;;;17.63;55.38;101522.91;4456093;32;20044;-75
2021/06/05 06:30:25;;;;;;;13.25;6.60;;;;;;;17.73;55.07;101528.16;4453239;32;20069;-75
2021/06/05 06:32:52;;;;;;;14.95;8.00;;;;;;;17.91;54.58;101518.09;4447929;32;20059;-74
2021/06/05 06:35:21;;;;;;;15.65;6.90;;;;;;;18.06;54.12;101517.03;4452410;32;20761;-75
2021/06/05 06:37:47;;;;;;;12.00;6.45;;;;;;;18.20;53.40;101518.47;4454677;32;20045;-74
2021/06/05 06:40:14;;;;;;;12.23;6.60;;;;;;;18.31;53.14;101524.50;4453824;32;20033;-75
2021/06/05 06:42:40;;;;;;;12.10;5.80;;;;;;;18.26;53.13;101517.38;4456721;32;20417;-76
2021/06/05 06:45:06;;;;;;;13.05;6.47;;;;;;;18.22;53.08;101519.56;4453188;32;20471;-75
2021/06/05 06:47:34;;;;;;;15.75;7.05;;;;;;;18.36;52.91;101518.16;4452524;32;20102;-75
2021/06/05 06:50:01;;;;;;;13.82;6.62;;;;;;;18.52;52.65;101517.87;4452845;32;20086;-74
2021/06/05 06:52:27;;;;;;;9.15;5.87;;;;;;;18.68;51.85;101509.03;4452952;32;20029;-74
2021/06/05 06:54:53;;;;;;;11.70;5.75;;;;;;;18.82;51.58;101520.59;4452590;32;20174;-75
2021/06/05 06:57:20;;;;;;;14.13;7.50;;;;;;;18.93;51.12;101517.25;4457070;32;20045;-75
2021/06/05 06:59:46;;;;;;;10.82;6.00;;;;;;;18.98;50.37;101516.59;4455826;32;20087;-75
2021/06/05 07:02:12;;;;;;;17.33;6.28;;;;;;;19.14;49.52;101516.25;4452051;32;20092;-77
2021/06/05 07:04:38;;;;;;;23.65;10.00;;;;;;;19.20;49.40;101517.97;4450232;32;20084;-75
2021/06/05 07:07:05;;;;;;;15.57;5.90;;;;;;;19.29;49.21;101517.97;4448628;32;20099;-75
2021/06/05 07:09:32;;;;;;;13.40;5.80;;;;;;;19.49;48.67;101517.44;4448778;32;20422;-74
2021/06/05 07:12:00;;;;;;;17.15;6.50;;;;;;;19.63;47.86;101511.03;4453317;32;20045;-75
2021/06/05 07:14:26;;;;;;;16.42;6.55;;;;;;;19.70;47.66;101517.19;4450681;32;20280;-76
2021/06/05 07:16:55;;;;;;;11.55;5.93;;;;;;;19.72;47.28;101513.84;4449890;32;20402;-76
2021/06/05 07:19:21;;;;;;;10.15;5.45;;;;;;;19.79;46.88;101513.50;4450838;32;20097;-76
2021/06/05 07:21:47;;;;;;;13.77;5.93;;;;;;;19.94;47.12;101519.31;4446055;32;20120;-77
2021/06/05 07:24:12;;;;;;;12.85;5.28;;;;;;;20.11;46.78;101514.75;4445408;32;20126;-77
2021/06/05 07:26:39;;;;;;;16.75;6.22;;;;;;;20.22;46.63;101515.03;4447707;32;20116;-77
2021/06/05 07:29:11;;;;;;;10.65;5.40;;;;;;;20.38;46.39;101517.44;4445386;32;20088;-77
2021/06/05 07:31:42;;;;;;;10.95;5.40;;;;;;;20.52;46.06;101520.34;4450932;32;20076;-77
2021/06/05 07:34:09;;;;;;;16.25;5.72;;;;;;;20.63;45.79;101523.44;4440779;32;20053;-76
2021/06/05 07:36:39;;;;;;;17.17;5.43;;;;;;;20.73;45.56;101524.94;4443750;32;20076;-76
2021/06/05 07:39:08;;;;;;;12.25;5.75;;;;;;;20.87;45.27;101523.38;4440168;32;20042;-77
2021/06/05 07:41:35;;;;;;;18.73;6.62;;;;;;;21.00;44.91;101524.72;4444170;32;20044;-77
2021/06/05 07:44:01;;;;;;;16.45;6.62;;;;;;;21.02;44.87;101518.50;4440918;32;20101;-77
2021/06/05 07:46:27;;;;;;;14.23;6.62;;;;;;;21.20;44.76;101513.38;4442331;32;20033;-76
2021/06/05 07:48:53;;;;;;;18.30;7.10;;;;;;;21.22;44.61;101516.53;4439597;32;20087;-74
2021/06/05 07:51:19;;;;;;;15.18;6.75;;;;;;;21.31;44.43;101518.50;4440959;32;20164;-74
2021/06/05 07:53:47;;;;;;;15.70;7.10;;;;;;;21.30;44.39;101517.69;4440459;32;20077;-75
2021/06/05 07:56:17;;;;;;;14.10;6.62;;;;;;;21.51;44.29;101530.81;4437829;32;20049;-74
2021/06/05 07:58:43;;;;;;;12.18;6.43;;;;;;;21.53;44.01;101522.53;4440697;32;20049;-75
2021/06/05 08:01:09;;;;;;;11.82;6.68;;;;;;;21.69;43.78;101526.94;4440503;32;20149;-74
2021/06/05 08:03:34;;;;;;;12.77;6.03;;;;;;;21.82;43.75;101512.34;4439761;32;20080;-75
2021/06/05 08:06:00;;;;;;;12.75;6.50;;;;;;;22.04;43.26;101509.78;4440256;32;20061;-75
2021/06/05 08:08:25;;;;;;;17.42;6.65;;;;;;;22.17;42.94;101513.88;4439586;32;20384;-75
2021/06/05 08:10:51;;;;;;;16.12;6.85;;;;;;;22.26;42.66;101513.75;4441142;32;20046;-77
2021/06/05 08:13:18;;;;;;;15.13;6.95;;;;;;;22.46;42.13;101516.62;4442893;32;20064;-74
2021/06/05 08:15:47;;;;;;;14.82;7.15;;;;;;;22.49;42.45;101501.25;4439376;32;20033;-77
2021/06/05 08:18:13;;;;;;;13.07;7.03;;;;;;;22.66;42.12;101510.09;4442044;32;20045;-77
2021/06/05 08:20:47;;;;;;;15.32;7.25;;;;;;;22.73;42.05;101510.47;4441320;32;20081;-77
2021/06/05 08:23:15;;;;;;;16.58;6.78;;;;;;;22.73;41.64;101512.56;4439392;32;20046;-77
2021/06/05 08:25:41;;;;;;;13.68;7.03;;;;;;;22.89;41.41;101511.94;4442392;32;20213;-77
2021/06/05 08:28:08;;;;;;;14.40;7.07;;;;;;;22.97;41.30;101504.44;4437963;32;20049;-76
2021/06/05 08:30:39;;;;;;;13.95;7.20;;;;;;;23.19;41.10;101504.66;4442605;32;20262;-77
2021/06/05 08:33:06;;;;;;;17.30;7.47;;;;;;;23.30;40.36;101505.59;4444708;32;20416;-76
2021/06/05 08:35:32;;;;;;;16.67;7.03;;;;;;;23.46;40.53;101507.03;4443581;32;20068;-76
2021/06/05 08:37:57;;;;;;;17.23;7.05;;;;;;;23.65;39.27;101508.22;4441925;32;20069;-77
2021/06/05 08:40:36;;;;;;;11.32;6.43;;;;;;;23.97;38.13;101506.91;4438070;32;20052;-75
2021/06/05 08:43:02;;;;;;;11.05;6.37;;;;;;;24.20;37.57;101507.84;4439401;32;20131;-76
2021/06/05 08:45:31;;;;;;;15.15;7.32;;;;;;;24.52;37.30;101503.53;4437123;32;20110;-76
2021/06/05 08:47:58;;;;;;;14.90;6.50;;;;;;;24.68;37.00;101494.19;4441529;32;20094;-76
2021/06/05 08:50:29;;;;;;;14.43;6.07;;;;;;;24.88;36.28;101497.66;4439271;32;20084;-76
2021/06/05 08:55:40;;;;;;;14.73;5.72;;;;;;;25.63;35.43;101496.69;4443012;31;687900;-76
2021/06/05 09:00:46;;;;;;;12.07;6.00;;;;;;;26.52;32.25;101495.16;4450830;31;670771;-75
2021/06/05 09:03:18;;;;;;;8.13;4.90;;;;;;;26.52;32.25;101495.16;4462767;32;20088;-76
2021/06/05 09:06:00;;;;;;;15.10;5.18;;;;;;;26.52;31.72;101485.72;4467151;32;21192;-75
2021/06/05 09:08:29;;;;;;;12.45;4.97;;;;;;;26.76;31.94;101489.56;4465190;32;20073;-75
2021/06/05 09:10:58;;;;;;;6.82;4.30;;;;;;;26.87;31.19;101494.47;4463609;32;20045;-75
2021/06/05 09:13:24;;;;;;;11.60;5.50;;;;;;;27.24;30.16;101500.53;4463627;32;20044;-75
2021/06/05 09:16:27;;;;;;;9.23;4.32;;;;;;;26.84;30.39;101501.31;4465556;32;20060;-75
2021/06/05 09:19:02;;;;;;;7.95;3.58;;;;;;;27.27;29.27;101493.69;4459435;32;20562;-75
2021/06/05 09:21:32;;;;;;;11.55;4.37;;;;;;;27.20;28.86;101505.81;4464395;32;20048;-75
2021/06/05 09:37:52;;;;;;;5.90;2.58;;;;;;;30.04;25.27;101503.22;4444699;31;668947;-75
2021/06/05 09:45:37;;;;;;;7.62;2.87;;;;;;;29.94;25.36;101496.31;4436979;31;683951;-75
2021/06/05 09:48:27;;;;;;;4.97;3.33;;;;;;;29.94;25.36;101496.31;4443943;32;20075;-75
2021/06/05 09:50:56;;;;;;;8.00;3.62;;;;;;;28.89;27.41;101493.00;4439397;32;20076;-75
2021/06/05 09:53:39;;;;;;;6.43;3.05;;;;;;;28.59;28.00;101501.03;4445164;32;20065;-75
2021/06/05 10:01:36;;;;;;;6.20;3.37;;;;;;;27.78;28.27;101501.69;4427428;31;667900;-75
2021/06/05 10:04:16;;;;;;;7.87;3.97;;;;;;;27.78;28.27;101501.41;4443519;32;20141;-75
2021/06/05 10:06:48;;;;;;;8.45;3.15;;;;;;;27.13;29.05;101497.72;4442301;32;20037;-75
2021/06/05 10:09:35;;;;;;;8.48;4.00;;;;;;;26.94;29.61;101500.47;4441216;32;20169;-75
2021/06/05 10:12:07;;;;;;;11.77;3.60;;;;;;;26.77;30.16;101493.22;4445115;32;20139;-75
2021/06/05 10:14:44;;;;;;;9.25;2.85;;;;;;;27.01;29.18;101505.69;4443307;32;20073;-75
2021/06/05 10:17:38;;;;;;;5.97;3.20;;;;;;;27.45;28.62;101489.38;4444722;32;20065;-76
2021/06/05 10:22:42;;;;;;;5.47;3.00;;;;;;;29.45;25.69;101497.94;4434775;31;671563;-75
2021/06/05 10:25:26;;;;;;;3.80;2.60;;;;;;;29.45;25.69;101497.94;4456342;32;20064;-75
2021/06/05 10:27:53;;;;;;;9.75;3.28;;;;;;;29.33;25.52;101500.25;4453020;32;20466;-75
2021/06/05 10:32:54;;;;;;;11.90;3.78;;;;;;;30.17;25.40;101495.31;4442992;31;673748;-74
2021/06/05 10:35:39;;;;;;;5.68;3.12;;;;;;;30.17;25.40;101495.31;4458200;32;20467;-75
2021/06/05 10:40:41;;;;;;;6.05;2.97;;;;;;;30.74;23.41;101506.03;4430898;31;668402;-75
2021/06/05 10:43:15;;;;;;;10.35;2.83;;;;;;;30.74;23.41;101506.03;4443266;32;20520;-75
2021/06/05 10:45:43;;;;;;;7.87;2.72;;;;;;;30.22;23.88;101497.34;4438072;32;20101;-75
2021/06/05 10:48:30;;;;;;;7.30;3.67;;;;;;;30.60;23.17;101492.06;4439972;32;20137;-75
2021/06/05 10:51:12;;;;;;;4.62;3.20;;;;;;;31.16;23.84;101486.56;4436774;32;20548;-75
2021/06/05 10:53:45;;;;;;;5.85;3.65;;;;;;;31.76;23.43;101484.25;4442152;32;20077;-75
2021/06/05 10:56:21;;;;;;;4.87;3.55;;;;;;;30.67;23.88;101492.16;4441398;32;20045;-75
2021/06/05 10:58:51;;;;;;;8.23;3.17;;;;;;;30.43;23.84;101489.50;4439597;32;20077;-76
2021/06/05 11:04:37;;;;;;;6.87;2.70;;;;;;;30.35;24.43;101491.53;4428390;31;678727;-75
2021/06/05 11:09:47;;;;;;;9.32;2.53;;;;;;;30.23;25.19;101486.50;4439657;31;665221;-76
2021/06/05 11:14:51;;;;;;;7.37;2.83;;;;;;;30.57;24.29;101479.44;4419894;31;1361664;-75
2021/06/05 11:25:44;;;;;;;8.70;2.72;;;;;;;30.79;24.41;101464.44;4433552;31;679211;-75
2021/06/05 11:31:44;;;;;;;9.05;2.15;;;;;;;31.91;22.73;101469.81;4437000;31;667596;-75
2021/06/05 11:37:43;;;;;;;5.07;2.60;;;;;;;34.06;19.42;101468.00;4437122;31;874507;-76
2021/06/05 11:40:11;;;;;;;8.50;3.17;;;;;;;34.06;19.42;101468.00;4448619;32;20365;-75
2021/06/05 11:42:55;;;;;;;5.95;2.95;;;;;;;34.07;19.77;101469.56;4450989;32;20103;-75
2021/06/05 11:47:57;;;;;;;5.82;2.85;;;;;;;33.85;20.32;101467.44;4444156;31;713524;-75
2021/06/05 11:50:30;;;;;;;10.52;3.50;;;;;;;33.85;20.32;101467.44;4450142;32;20079;-76
2021/06/05 11:53:35;;;;;;;5.85;2.58;;;;;;;32.93;20.97;101464.97;4455923;32;20110;-75
2021/06/05 11:56:08;;;;;;;4.68;2.65;;;;;;;32.95;20.49;101455.66;4455486;32;20069;-76
2021/06/05 11:58:36;;;;;;;5.47;2.58;;;;;;;33.30;19.62;101464.28;4455118;32;20208;-75
2021/06/05 12:01:27;;;;;;;5.50;2.87;;;;;;;33.03;20.62;101459.34;4449986;32;20450;-76
2021/06/05 12:06:36;;;;;;;3.62;2.83;;;;;;;33.35;20.43;101456.69;4433309;31;680917;-75
2021/06/05 12:12:06;;;;;;;9.60;3.25;;;;;;;33.14;20.73;101445.19;4446838;31;685137;-75
2021/06/05 12:20:07;;;;;;;8.73;3.10;;;;;;;30.60;23.34;101454.28;4441205;31;671821;-75
2021/06/05 12:22:33;;;;;;;11.57;3.55;;;;;;;30.60;23.34;101454.28;4456296;32;20394;-76
2021/06/05 12:25:00;;;;;;;7.68;2.80;;;;;;;29.39;24.61;101453.75;4454390;32;20053;-75
2021/06/05 12:33:02;;;;;;;4.40;2.33;;;;;;;29.59;24.72;101436.50;4427447;32;693312;-75
2021/06/05 12:35:34;;;;;;;6.90;3.25;;;;;;;29.14;25.43;101446.53;4450178;32;20076;-75
2021/06/05 12:38:01;;;;;;;7.47;2.60;;;;;;;28.53;26.02;101436.59;4446413;32;20911;-75
2021/06/05 12:40:50;;;;;;;3.47;2.45;;;;;;;28.64;25.92;101441.47;4447431;32;20021;-75
2021/06/05 12:43:22;;;;;;;4.75;2.72;;;;;;;28.73;26.05;101441.06;4450567;32;20081;-76
2021/06/05 12:45:48;;;;;;;5.90;2.90;;;;;;;28.75;26.11;101441.31;4447755;32;20030;-75
2021/06/05 12:48:17;;;;;;;6.10;2.62;;;;;;;28.50;26.29;101439.84;4445409;32;20590;-76
2021/06/05 12:50:45;;;;;;;5.10;2.42;;;;;;;28.61;26.27;101436.78;4442642;32;20081;-76
2021/06/05 12:53:24;;;;;;;5.32;2.92;;;;;;;28.93;25.91;101438.38;4446736;32;20129;-76
2021/06/05 12:55:53;;;;;;;4.72;2.78;;;;;;;28.19;26.67;101435.47;4448082;32;20077;-76
2021/06/05 12:58:43;;;;;;;4.47;2.65;;;;;;;27.92;27.05;101430.00;4449186;32;20100;-76
2021/06/05 13:07:07;;;;;;;5.22;2.45;;;;;;;29.01;26.22;101421.13;4439552;31;668725;-75